sensor_id;sensor_type;location;lat;lon;timestamp;P1;durP1;ratioP1;P2;durP2;ratioP2
72275;SDS011;61204;49.980;8.358;2024-02-26T00:00:39;2.33;;;1.30;;
72275;SDS011;61204;49.980;8.358;2024-02-26T00:03:04;1.65;;;0.95;;
72275;SDS011;61204;49.980;8.358;2024-02-26T00:05:32;2.38;;;1.58;;
72275;SDS011;61204;49.980;8.358;2024-02-26T00:07:58;2.30;;;1.15;;
72275;SDS011;61204;49.980;8.358;2024-02-26T00:10:23;2.20;;;1.10;;
72275;SDS011;61204;49.980;8.358;2024-02-26T00:12:51;2.38;;;1.55;;
72275;SDS011;61204;49.980;8.358;2024-02-26T00:15:17;2.05;;;1.08;;
72275;SDS011;61204;49.980;8.358;2024-02-26T00:17:42;1.10;;;1.00;;
72275;SDS011;61204;49.980;8.358;2024-02-26T00:20:09;1.90;;;1.35;;
72275;SDS011;61204;49.980;8.358;2024-02-26T00:22:36;3.67;;;1.20;;
72275;SDS011;61204;49.980;8.358;2024-02-26T00:25:02;1.88;;;1.10;;
72275;SDS011;61204;49.980;8.358;2024-02-26T00:27:29;1.70;;;1.00;;
72275;SDS011;61204;49.980;8.358;2024-02-26T00:29:55;1.23;;;1.05;;
72275;SDS011;61204;49.980;8.358;2024-02-26T00:32:20;2.78;;;1.17;;
72275;SDS011;61204;49.980;8.358;2024-02-26T00:34:46;3.03;;;1.48;;
72275;SDS011;61204;49.980;8.358;2024-02-26T00:37:11;1.73;;;1.17;;
72275;SDS011;61204;49.980;8.358;2024-02-26T00:39:37;3.22;;;1.17;;
72275;SDS011;61204;49.980;8.358;2024-02-26T00:42:02;1.60;;;1.10;;
72275;SDS011;61204;49.980;8.358;2024-02-26T00:44:28;1.75;;;1.27;;
72275;SDS011;61204;49.980;8.358;2024-02-26T00:46:54;2.03;;;1.20;;
72275;SDS011;61204;49.980;8.358;2024-02-26T00:49:19;3.67;;;1.20;;
72275;SDS011;61204;49.980;8.358;2024-02-26T00:51:47;1.65;;;1.10;;
72275;SDS011;61204;49.980;8.358;2024-02-26T00:54:15;1.48;;;0.93;;
72275;SDS011;61204;49.980;8.358;2024-02-26T00:56:40;2.33;;;1.40;;
72275;SDS011;61204;49.980;8.358;2024-02-26T00:59:06;1.67;;;1.00;;
72275;SDS011;61204;49.980;8.358;2024-02-26T01:01:31;2.03;;;1.15;;
72275;SDS011;61204;49.980;8.358;2024-02-26T01:03:57;1.60;;;1.00;;
72275;SDS011;61204;49.980;8.358;2024-02-26T01:06:22;2.35;;;1.20;;
72275;SDS011;61204;49.980;8.358;2024-02-26T01:08:48;1.77;;;0.88;;
72275;SDS011;61204;49.980;8.358;2024-02-26T01:11:14;2.70;;;1.63;;
72275;SDS011;61204;49.980;8.358;2024-02-26T01:13:39;1.60;;;1.02;;
72275;SDS011;61204;49.980;8.358;2024-02-26T01:16:05;3.05;;;1.20;;
72275;SDS011;61204;49.980;8.358;2024-02-26T01:18:31;1.63;;;1.10;;
72275;SDS011;61204;49.980;8.358;2024-02-26T01:20:58;1.20;;;0.85;;
72275;SDS011;61204;49.980;8.358;2024-02-26T01:23:24;2.80;;;1.30;;
72275;SDS011;61204;49.980;8.358;2024-02-26T01:25:49;1.90;;;1.23;;
72275;SDS011;61204;49.980;8.358;2024-02-26T01:28:15;2.00;;;1.20;;
72275;SDS011;61204;49.980;8.358;2024-02-26T01:30:41;3.05;;;1.27;;
72275;SDS011;61204;49.980;8.358;2024-02-26T01:33:07;2.38;;;1.30;;
72275;SDS011;61204;49.980;8.358;2024-02-26T01:35:35;2.38;;;1.25;;
72275;SDS011;61204;49.980;8.358;2024-02-26T01:38:01;2.63;;;1.20;;
72275;SDS011;61204;49.980;8.358;2024-02-26T01:40:26;1.70;;;1.40;;
72275;SDS011;61204;49.980;8.358;2024-02-26T01:42:52;2.47;;;1.50;;
72275;SDS011;61204;49.980;8.358;2024-02-26T01:45:18;3.28;;;1.33;;
72275;SDS011;61204;49.980;8.358;2024-02-26T01:47:49;1.92;;;1.40;;
72275;SDS011;61204;49.980;8.358;2024-02-26T01:50:17;2.40;;;1.55;;
72275;SDS011;61204;49.980;8.358;2024-02-26T01:52:45;2.08;;;1.50;;
72275;SDS011;61204;49.980;8.358;2024-02-26T01:55:14;2.00;;;1.20;;
72275;SDS011;61204;49.980;8.358;2024-02-26T01:57:43;2.92;;;1.45;;
72275;SDS011;61204;49.980;8.358;2024-02-26T02:00:13;4.10;;;1.52;;
72275;SDS011;61204;49.980;8.358;2024-02-26T02:02:41;3.22;;;1.45;;
72275;SDS011;61204;49.980;8.358;2024-02-26T02:05:09;2.40;;;1.52;;
72275;SDS011;61204;49.980;8.358;2024-02-26T02:07:39;2.65;;;1.40;;
72275;SDS011;61204;49.980;8.358;2024-02-26T02:10:06;2.25;;;1.25;;
72275;SDS011;61204;49.980;8.358;2024-02-26T02:12:33;3.42;;;1.40;;
72275;SDS011;61204;49.980;8.358;2024-02-26T02:14:59;1.60;;;1.10;;
72275;SDS011;61204;49.980;8.358;2024-02-26T02:17:26;2.20;;;1.38;;
72275;SDS011;61204;49.980;8.358;2024-02-26T02:19:53;1.88;;;1.27;;
72275;SDS011;61204;49.980;8.358;2024-02-26T02:22:19;1.65;;;1.20;;
72275;SDS011;61204;49.980;8.358;2024-02-26T02:24:44;3.70;;;1.30;;
72275;SDS011;61204;49.980;8.358;2024-02-26T02:27:11;2.45;;;1.30;;
72275;SDS011;61204;49.980;8.358;2024-02-26T02:29:37;2.42;;;1.35;;
72275;SDS011;61204;49.980;8.358;2024-02-26T02:32:03;3.30;;;1.20;;
72275;SDS011;61204;49.980;8.358;2024-02-26T02:34:30;2.78;;;1.33;;
72275;SDS011;61204;49.980;8.358;2024-02-26T02:36:59;1.38;;;1.15;;
72275;SDS011;61204;49.980;8.358;2024-02-26T02:39:24;1.60;;;1.10;;
72275;SDS011;61204;49.980;8.358;2024-02-26T02:41:50;2.88;;;1.30;;
72275;SDS011;61204;49.980;8.358;2024-02-26T02:44:15;1.92;;;1.25;;
72275;SDS011;61204;49.980;8.358;2024-02-26T02:46:41;3.00;;;1.35;;
72275;SDS011;61204;49.980;8.358;2024-02-26T02:49:10;2.80;;;1.23;;
72275;SDS011;61204;49.980;8.358;2024-02-26T02:51:39;1.30;;;1.13;;
72275;SDS011;61204;49.980;8.358;2024-02-26T02:54:04;2.03;;;1.35;;
72275;SDS011;61204;49.980;8.358;2024-02-26T02:56:30;2.25;;;1.40;;
72275;SDS011;61204;49.980;8.358;2024-02-26T02:58:55;1.65;;;1.20;;
72275;SDS011;61204;49.980;8.358;2024-02-26T03:01:21;2.47;;;1.40;;
72275;SDS011;61204;49.980;8.358;2024-02-26T03:03:49;1.95;;;1.45;;
72275;SDS011;61204;49.980;8.358;2024-02-26T03:06:17;2.72;;;1.27;;
72275;SDS011;61204;49.980;8.358;2024-02-26T03:08:42;2.10;;;1.15;;
72275;SDS011;61204;49.980;8.358;2024-02-26T03:11:12;3.28;;;1.20;;
72275;SDS011;61204;49.980;8.358;2024-02-26T03:13:42;2.53;;;1.50;;
72275;SDS011;61204;49.980;8.358;2024-02-26T03:16:08;3.20;;;1.38;;
72275;SDS011;61204;49.980;8.358;2024-02-26T03:18:34;1.70;;;1.20;;
72275;SDS011;61204;49.980;8.358;2024-02-26T03:20:59;3.58;;;1.50;;
72275;SDS011;61204;49.980;8.358;2024-02-26T03:23:25;2.42;;;1.20;;
72275;SDS011;61204;49.980;8.358;2024-02-26T03:25:50;2.95;;;1.35;;
72275;SDS011;61204;49.980;8.358;2024-02-26T03:28:16;3.72;;;1.38;;
72275;SDS011;61204;49.980;8.358;2024-02-26T03:30:41;3.72;;;1.60;;
72275;SDS011;61204;49.980;8.358;2024-02-26T03:33:10;1.70;;;1.40;;
72275;SDS011;61204;49.980;8.358;2024-02-26T03:35:35;2.63;;;1.50;;
72275;SDS011;61204;49.980;8.358;2024-02-26T03:38:01;3.45;;;1.52;;
72275;SDS011;61204;49.980;8.358;2024-02-26T03:40:27;2.15;;;1.50;;
72275;SDS011;61204;49.980;8.358;2024-02-26T03:42:53;3.67;;;1.48;;
72275;SDS011;61204;49.980;8.358;2024-02-26T03:45:19;2.78;;;2.13;;
72275;SDS011;61204;49.980;8.358;2024-02-26T03:47:47;3.47;;;1.67;;
72275;SDS011;61204;49.980;8.358;2024-02-26T03:50:12;1.65;;;1.20;;
72275;SDS011;61204;49.980;8.358;2024-02-26T03:52:38;2.83;;;1.70;;
72275;SDS011;61204;49.980;8.358;2024-02-26T03:55:04;3.45;;;1.92;;
72275;SDS011;61204;49.980;8.358;2024-02-26T03:57:29;5.07;;;1.73;;
72275;SDS011;61204;49.980;8.358;2024-02-26T03:59:55;5.18;;;1.90;;
72275;SDS011;61204;49.980;8.358;2024-02-26T04:02:24;3.97;;;2.00;;
72275;SDS011;61204;49.980;8.358;2024-02-26T04:04:50;3.58;;;2.15;;
72275;SDS011;61204;49.980;8.358;2024-02-26T04:07:16;3.00;;;2.60;;
72275;SDS011;61204;49.980;8.358;2024-02-26T04:09:41;6.95;;;2.35;;
72275;SDS011;61204;49.980;8.358;2024-02-26T04:12:08;4.07;;;2.05;;
72275;SDS011;61204;49.980;8.358;2024-02-26T04:14:35;3.30;;;2.08;;
72275;SDS011;61204;49.980;8.358;2024-02-26T04:17:03;2.33;;;2.00;;
72275;SDS011;61204;49.980;8.358;2024-02-26T04:19:29;3.30;;;2.03;;
72275;SDS011;61204;49.980;8.358;2024-02-26T04:21:54;2.13;;;1.73;;
72275;SDS011;61204;49.980;8.358;2024-02-26T04:24:20;3.45;;;2.13;;
72275;SDS011;61204;49.980;8.358;2024-02-26T04:26:48;3.08;;;1.95;;
72275;SDS011;61204;49.980;8.358;2024-02-26T04:29:17;2.80;;;2.28;;
72275;SDS011;61204;49.980;8.358;2024-02-26T04:31:42;3.53;;;2.42;;
72275;SDS011;61204;49.980;8.358;2024-02-26T04:34:08;4.28;;;2.38;;
72275;SDS011;61204;49.980;8.358;2024-02-26T04:36:33;3.80;;;2.30;;
72275;SDS011;61204;49.980;8.358;2024-02-26T04:38:59;3.45;;;2.38;;
72275;SDS011;61204;49.980;8.358;2024-02-26T04:41:25;3.72;;;2.47;;
72275;SDS011;61204;49.980;8.358;2024-02-26T04:43:50;8.02;;;2.72;;
72275;SDS011;61204;49.980;8.358;2024-02-26T04:46:16;2.70;;;2.10;;
72275;SDS011;61204;49.980;8.358;2024-02-26T04:48:41;3.97;;;2.58;;
72275;SDS011;61204;49.980;8.358;2024-02-26T04:51:07;3.15;;;2.50;;
72275;SDS011;61204;49.980;8.358;2024-02-26T04:53:32;5.07;;;3.05;;
72275;SDS011;61204;49.980;8.358;2024-02-26T04:55:58;4.88;;;2.40;;
72275;SDS011;61204;49.980;8.358;2024-02-26T04:58:24;3.90;;;2.13;;
72275;SDS011;61204;49.980;8.358;2024-02-26T05:00:49;3.22;;;2.50;;
72275;SDS011;61204;49.980;8.358;2024-02-26T05:03:15;4.20;;;2.50;;
72275;SDS011;61204;49.980;8.358;2024-02-26T05:05:44;5.78;;;2.67;;
72275;SDS011;61204;49.980;8.358;2024-02-26T05:08:12;3.70;;;2.53;;
72275;SDS011;61204;49.980;8.358;2024-02-26T05:10:37;4.22;;;2.60;;
72275;SDS011;61204;49.980;8.358;2024-02-26T05:13:08;3.83;;;2.90;;
72275;SDS011;61204;49.980;8.358;2024-02-26T05:15:34;4.35;;;3.05;;
72275;SDS011;61204;49.980;8.358;2024-02-26T05:18:01;6.13;;;3.22;;
72275;SDS011;61204;49.980;8.358;2024-02-26T05:20:28;5.25;;;2.90;;
72275;SDS011;61204;49.980;8.358;2024-02-26T05:22:53;5.30;;;2.85;;
72275;SDS011;61204;49.980;8.358;2024-02-26T05:25:19;4.35;;;2.88;;
72275;SDS011;61204;49.980;8.358;2024-02-26T05:27:45;5.20;;;3.42;;
72275;SDS011;61204;49.980;8.358;2024-02-26T05:30:10;6.72;;;3.45;;
72275;SDS011;61204;49.980;8.358;2024-02-26T05:32:39;4.47;;;3.28;;
72275;SDS011;61204;49.980;8.358;2024-02-26T05:35:05;3.88;;;3.13;;
72275;SDS011;61204;49.980;8.358;2024-02-26T05:37:32;3.90;;;3.00;;
72275;SDS011;61204;49.980;8.358;2024-02-26T05:39:58;7.20;;;3.90;;
72275;SDS011;61204;49.980;8.358;2024-02-26T05:42:24;4.53;;;3.22;;
72275;SDS011;61204;49.980;8.358;2024-02-26T05:44:50;6.40;;;3.53;;
72275;SDS011;61204;49.980;8.358;2024-02-26T05:47:17;5.05;;;3.60;;
72275;SDS011;61204;49.980;8.358;2024-02-26T05:49:43;5.03;;;3.40;;
72275;SDS011;61204;49.980;8.358;2024-02-26T05:52:12;6.55;;;3.58;;
72275;SDS011;61204;49.980;8.358;2024-02-26T05:54:37;7.22;;;3.95;;
72275;SDS011;61204;49.980;8.358;2024-02-26T05:57:03;6.85;;;4.30;;
72275;SDS011;61204;49.980;8.358;2024-02-26T05:59:29;5.05;;;3.50;;
72275;SDS011;61204;49.980;8.358;2024-02-26T06:01:59;6.93;;;3.78;;
72275;SDS011;61204;49.980;8.358;2024-02-26T06:04:24;7.35;;;3.90;;
72275;SDS011;61204;49.980;8.358;2024-02-26T06:06:50;6.35;;;3.90;;
72275;SDS011;61204;49.980;8.358;2024-02-26T06:09:18;5.30;;;3.75;;
72275;SDS011;61204;49.980;8.358;2024-02-26T06:11:43;6.40;;;3.78;;
72275;SDS011;61204;49.980;8.358;2024-02-26T06:14:09;6.00;;;3.88;;
72275;SDS011;61204;49.980;8.358;2024-02-26T06:16:35;4.47;;;3.80;;
72275;SDS011;61204;49.980;8.358;2024-02-26T06:19:00;9.63;;;4.20;;
72275;SDS011;61204;49.980;8.358;2024-02-26T06:21:26;9.07;;;4.15;;
72275;SDS011;61204;49.980;8.358;2024-02-26T06:23:52;6.53;;;3.78;;
72275;SDS011;61204;49.980;8.358;2024-02-26T06:26:17;6.35;;;3.83;;
72275;SDS011;61204;49.980;8.358;2024-02-26T06:28:43;6.45;;;4.10;;
72275;SDS011;61204;49.980;8.358;2024-02-26T06:31:09;8.80;;;4.55;;
72275;SDS011;61204;49.980;8.358;2024-02-26T06:33:35;8.80;;;4.15;;
72275;SDS011;61204;49.980;8.358;2024-02-26T06:36:00;5.88;;;4.15;;
72275;SDS011;61204;49.980;8.358;2024-02-26T06:38:26;7.35;;;4.93;;
72275;SDS011;61204;49.980;8.358;2024-02-26T06:40:52;13.90;;;4.97;;
72275;SDS011;61204;49.980;8.358;2024-02-26T06:43:18;7.20;;;4.95;;
72275;SDS011;61204;49.980;8.358;2024-02-26T06:45:43;8.80;;;4.93;;
72275;SDS011;61204;49.980;8.358;2024-02-26T06:48:09;9.85;;;4.97;;
72275;SDS011;61204;49.980;8.358;2024-02-26T06:50:34;8.38;;;4.90;;
72275;SDS011;61204;49.980;8.358;2024-02-26T06:53:00;8.45;;;4.70;;
72275;SDS011;61204;49.980;8.358;2024-02-26T06:55:28;11.25;;;5.88;;
72275;SDS011;61204;49.980;8.358;2024-02-26T06:57:53;9.38;;;5.43;;
72275;SDS011;61204;49.980;8.358;2024-02-26T07:00:19;10.70;;;5.43;;
72275;SDS011;61204;49.980;8.358;2024-02-26T07:02:45;9.77;;;5.78;;
72275;SDS011;61204;49.980;8.358;2024-02-26T07:05:10;7.18;;;4.55;;
72275;SDS011;61204;49.980;8.358;2024-02-26T07:07:37;10.63;;;8.73;;
72275;SDS011;61204;49.980;8.358;2024-02-26T07:10:03;12.57;;;9.80;;
72275;SDS011;61204;49.980;8.358;2024-02-26T07:12:30;11.90;;;7.70;;
72275;SDS011;61204;49.980;8.358;2024-02-26T07:14:56;8.30;;;5.40;;
72275;SDS011;61204;49.980;8.358;2024-02-26T07:17:21;7.93;;;4.70;;
72275;SDS011;61204;49.980;8.358;2024-02-26T07:19:47;9.45;;;5.03;;
72275;SDS011;61204;49.980;8.358;2024-02-26T07:22:15;9.43;;;5.32;;
72275;SDS011;61204;49.980;8.358;2024-02-26T07:24:40;11.25;;;5.38;;
72275;SDS011;61204;49.980;8.358;2024-02-26T07:27:06;9.30;;;5.65;;
72275;SDS011;61204;49.980;8.358;2024-02-26T07:29:33;7.05;;;5.50;;
72275;SDS011;61204;49.980;8.358;2024-02-26T07:31:59;11.68;;;4.93;;
72275;SDS011;61204;49.980;8.358;2024-02-26T07:34:25;12.38;;;5.15;;
72275;SDS011;61204;49.980;8.358;2024-02-26T07:36:54;9.35;;;5.30;;
72275;SDS011;61204;49.980;8.358;2024-02-26T07:39:21;8.90;;;5.22;;
72275;SDS011;61204;49.980;8.358;2024-02-26T07:41:49;9.15;;;5.30;;
72275;SDS011;61204;49.980;8.358;2024-02-26T07:44:17;9.70;;;6.40;;
72275;SDS011;61204;49.980;8.358;2024-02-26T07:46:43;9.60;;;6.00;;
72275;SDS011;61204;49.980;8.358;2024-02-26T07:49:12;9.95;;;5.45;;
72275;SDS011;61204;49.980;8.358;2024-02-26T07:51:40;8.98;;;5.45;;
72275;SDS011;61204;49.980;8.358;2024-02-26T07:54:05;7.70;;;4.88;;
72275;SDS011;61204;49.980;8.358;2024-02-26T07:56:31;9.52;;;5.15;;
72275;SDS011;61204;49.980;8.358;2024-02-26T07:58:57;11.52;;;6.00;;
72275;SDS011;61204;49.980;8.358;2024-02-26T08:01:22;9.57;;;5.70;;
72275;SDS011;61204;49.980;8.358;2024-02-26T08:03:48;9.35;;;5.70;;
72275;SDS011;61204;49.980;8.358;2024-02-26T08:06:13;10.10;;;6.65;;
72275;SDS011;61204;49.980;8.358;2024-02-26T08:08:41;9.68;;;5.18;;
72275;SDS011;61204;49.980;8.358;2024-02-26T08:11:07;9.20;;;5.40;;
72275;SDS011;61204;49.980;8.358;2024-02-26T08:13:33;9.05;;;5.40;;
72275;SDS011;61204;49.980;8.358;2024-02-26T08:15:59;9.88;;;5.78;;
72275;SDS011;61204;49.980;8.358;2024-02-26T08:18:24;10.48;;;5.25;;
72275;SDS011;61204;49.980;8.358;2024-02-26T08:20:50;8.18;;;5.35;;
72275;SDS011;61204;49.980;8.358;2024-02-26T08:23:15;11.95;;;6.15;;
72275;SDS011;61204;49.980;8.358;2024-02-26T08:25:42;9.40;;;5.13;;
72275;SDS011;61204;49.980;8.358;2024-02-26T08:28:08;10.02;;;6.20;;
72275;SDS011;61204;49.980;8.358;2024-02-26T08:30:36;11.75;;;5.43;;
72275;SDS011;61204;49.980;8.358;2024-02-26T08:33:01;10.70;;;5.90;;
72275;SDS011;61204;49.980;8.358;2024-02-26T08:35:27;10.90;;;5.78;;
72275;SDS011;61204;49.980;8.358;2024-02-26T08:37:53;12.10;;;6.97;;
72275;SDS011;61204;49.980;8.358;2024-02-26T08:40:18;11.23;;;6.28;;
72275;SDS011;61204;49.980;8.358;2024-02-26T08:42:47;11.73;;;6.10;;
72275;SDS011;61204;49.980;8.358;2024-02-26T08:45:12;10.05;;;5.95;;
72275;SDS011;61204;49.980;8.358;2024-02-26T08:47:38;10.95;;;5.55;;
72275;SDS011;61204;49.980;8.358;2024-02-26T08:50:04;10.52;;;6.72;;
72275;SDS011;61204;49.980;8.358;2024-02-26T08:52:31;12.05;;;6.90;;
72275;SDS011;61204;49.980;8.358;2024-02-26T08:54:58;12.05;;;5.88;;
72275;SDS011;61204;49.980;8.358;2024-02-26T08:57:24;10.30;;;6.03;;
72275;SDS011;61204;49.980;8.358;2024-02-26T08:59:52;12.43;;;6.38;;
72275;SDS011;61204;49.980;8.358;2024-02-26T09:02:17;9.40;;;5.63;;
72275;SDS011;61204;49.980;8.358;2024-02-26T09:04:44;11.52;;;6.00;;
72275;SDS011;61204;49.980;8.358;2024-02-26T09:07:10;10.32;;;6.32;;
72275;SDS011;61204;49.980;8.358;2024-02-26T09:09:36;11.65;;;6.60;;
72275;SDS011;61204;49.980;8.358;2024-02-26T09:12:01;10.15;;;5.50;;
72275;SDS011;61204;49.980;8.358;2024-02-26T09:14:28;9.88;;;6.32;;
72275;SDS011;61204;49.980;8.358;2024-02-26T09:16:53;10.77;;;6.60;;
72275;SDS011;61204;49.980;8.358;2024-02-26T09:19:22;10.55;;;6.70;;
72275;SDS011;61204;49.980;8.358;2024-02-26T09:21:52;12.38;;;7.55;;
72275;SDS011;61204;49.980;8.358;2024-02-26T09:24:22;13.55;;;6.47;;
72275;SDS011;61204;49.980;8.358;2024-02-26T09:26:51;16.33;;;6.75;;
72275;SDS011;61204;49.980;8.358;2024-02-26T09:29:17;13.52;;;6.93;;
72275;SDS011;61204;49.980;8.358;2024-02-26T09:31:43;15.48;;;6.57;;
72275;SDS011;61204;49.980;8.358;2024-02-26T09:34:12;13.60;;;7.07;;
72275;SDS011;61204;49.980;8.358;2024-02-26T09:36:37;10.45;;;6.97;;
72275;SDS011;61204;49.980;8.358;2024-02-26T09:39:03;10.45;;;6.40;;
72275;SDS011;61204;49.980;8.358;2024-02-26T09:41:28;11.57;;;6.85;;
72275;SDS011;61204;49.980;8.358;2024-02-26T09:43:56;9.45;;;6.13;;
72275;SDS011;61204;49.980;8.358;2024-02-26T09:46:30;11.23;;;6.85;;
72275;SDS011;61204;49.980;8.358;2024-02-26T09:48:57;13.75;;;6.22;;
72275;SDS011;61204;49.980;8.358;2024-02-26T09:51:23;10.93;;;6.60;;
72275;SDS011;61204;49.980;8.358;2024-02-26T09:53:51;11.93;;;6.63;;
72275;SDS011;61204;49.980;8.358;2024-02-26T09:56:18;10.52;;;6.20;;
72275;SDS011;61204;49.980;8.358;2024-02-26T09:58:45;15.02;;;8.10;;
72275;SDS011;61204;49.980;8.358;2024-02-26T10:01:16;11.20;;;6.68;;
72275;SDS011;61204;49.980;8.358;2024-02-26T10:03:43;12.05;;;6.80;;
72275;SDS011;61204;49.980;8.358;2024-02-26T10:06:12;9.27;;;6.18;;
72275;SDS011;61204;49.980;8.358;2024-02-26T10:08:38;14.13;;;6.78;;
72275;SDS011;61204;49.980;8.358;2024-02-26T10:11:06;11.70;;;6.57;;
72275;SDS011;61204;49.980;8.358;2024-02-26T10:13:34;10.65;;;6.20;;
72275;SDS011;61204;49.980;8.358;2024-02-26T10:16:01;9.75;;;6.20;;
72275;SDS011;61204;49.980;8.358;2024-02-26T10:18:44;14.95;;;7.00;;
72275;SDS011;61204;49.980;8.358;2024-02-26T10:21:20;11.00;;;7.10;;
72275;SDS011;61204;49.980;8.358;2024-02-26T10:23:47;11.18;;;6.53;;
72275;SDS011;61204;49.980;8.358;2024-02-26T10:26:17;11.27;;;6.10;;
72275;SDS011;61204;49.980;8.358;2024-02-26T10:28:43;10.73;;;6.57;;
72275;SDS011;61204;49.980;8.358;2024-02-26T10:31:11;9.32;;;5.85;;
72275;SDS011;61204;49.980;8.358;2024-02-26T10:33:39;9.32;;;6.47;;
72275;SDS011;61204;49.980;8.358;2024-02-26T10:36:06;8.15;;;5.93;;
72275;SDS011;61204;49.980;8.358;2024-02-26T10:38:37;11.13;;;6.93;;
72275;SDS011;61204;49.980;8.358;2024-02-26T10:41:03;10.27;;;5.93;;
72275;SDS011;61204;49.980;8.358;2024-02-26T10:43:31;11.05;;;5.97;;
72275;SDS011;61204;49.980;8.358;2024-02-26T10:45:57;10.35;;;5.25;;
72275;SDS011;61204;49.980;8.358;2024-02-26T10:48:23;9.55;;;6.00;;
72275;SDS011;61204;49.980;8.358;2024-02-26T10:50:49;11.18;;;6.38;;
72275;SDS011;61204;49.980;8.358;2024-02-26T10:53:25;9.00;;;5.28;;
72275;SDS011;61204;49.980;8.358;2024-02-26T10:55:57;9.45;;;5.10;;
72275;SDS011;61204;49.980;8.358;2024-02-26T10:58:32;7.72;;;5.13;;
72275;SDS011;61204;49.980;8.358;2024-02-26T11:01:00;11.10;;;6.22;;
72275;SDS011;61204;49.980;8.358;2024-02-26T11:03:28;7.95;;;5.82;;
72275;SDS011;61204;49.980;8.358;2024-02-26T11:05:59;8.93;;;6.00;;
72275;SDS011;61204;49.980;8.358;2024-02-26T11:08:28;11.10;;;4.97;;
72275;SDS011;61204;49.980;8.358;2024-02-26T11:10:57;9.93;;;5.32;;
72275;SDS011;61204;49.980;8.358;2024-02-26T11:13:26;11.93;;;7.20;;
72275;SDS011;61204;49.980;8.358;2024-02-26T11:15:56;7.93;;;5.53;;
72275;SDS011;61204;49.980;8.358;2024-02-26T11:18:23;12.52;;;5.93;;
72275;SDS011;61204;49.980;8.358;2024-02-26T11:20:52;14.50;;;6.38;;
72275;SDS011;61204;49.980;8.358;2024-02-26T11:23:22;9.23;;;5.60;;
72275;SDS011;61204;49.980;8.358;2024-02-26T11:25:49;10.88;;;5.75;;
72275;SDS011;61204;49.980;8.358;2024-02-26T11:28:24;9.15;;;5.22;;
72275;SDS011;61204;49.980;8.358;2024-02-26T11:30:57;11.57;;;6.40;;
72275;SDS011;61204;49.980;8.358;2024-02-26T11:33:28;7.82;;;5.38;;
72275;SDS011;61204;49.980;8.358;2024-02-26T11:35:54;9.52;;;5.75;;
72275;SDS011;61204;49.980;8.358;2024-02-26T11:38:21;8.48;;;5.60;;
72275;SDS011;61204;49.980;8.358;2024-02-26T11:40:51;10.52;;;6.60;;
72275;SDS011;61204;49.980;8.358;2024-02-26T11:43:23;7.82;;;5.28;;
72275;SDS011;61204;49.980;8.358;2024-02-26T11:46:32;9.32;;;5.57;;
72275;SDS011;61204;49.980;8.358;2024-02-26T11:51:56;10.23;;;5.85;;
72275;SDS011;61204;49.980;8.358;2024-02-26T11:54:38;8.05;;;5.38;;
72275;SDS011;61204;49.980;8.358;2024-02-26T12:00:14;7.78;;;4.30;;
72275;SDS011;61204;49.980;8.358;2024-02-26T12:02:52;8.82;;;5.57;;
72275;SDS011;61204;49.980;8.358;2024-02-26T12:05:26;7.97;;;4.57;;
72275;SDS011;61204;49.980;8.358;2024-02-26T12:08:04;8.20;;;4.70;;
72275;SDS011;61204;49.980;8.358;2024-02-26T12:10:37;6.32;;;4.15;;
72275;SDS011;61204;49.980;8.358;2024-02-26T12:13:10;8.35;;;5.38;;
72275;SDS011;61204;49.980;8.358;2024-02-26T12:18:10;7.38;;;4.78;;
72275;SDS011;61204;49.980;8.358;2024-02-26T12:20:47;6.35;;;4.63;;
72275;SDS011;61204;49.980;8.358;2024-02-26T12:23:27;7.47;;;4.50;;
72275;SDS011;61204;49.980;8.358;2024-02-26T12:25:53;8.25;;;4.97;;
72275;SDS011;61204;49.980;8.358;2024-02-26T12:28:27;9.07;;;4.95;;
72275;SDS011;61204;49.980;8.358;2024-02-26T12:30:54;8.27;;;5.15;;
72275;SDS011;61204;49.980;8.358;2024-02-26T12:33:24;7.53;;;4.88;;
72275;SDS011;61204;49.980;8.358;2024-02-26T12:35:52;8.02;;;4.78;;
72275;SDS011;61204;49.980;8.358;2024-02-26T12:38:18;6.90;;;4.78;;
72275;SDS011;61204;49.980;8.358;2024-02-26T12:40:45;8.27;;;5.03;;
72275;SDS011;61204;49.980;8.358;2024-02-26T12:43:13;6.43;;;4.85;;
72275;SDS011;61204;49.980;8.358;2024-02-26T12:45:40;6.45;;;4.50;;
72275;SDS011;61204;49.980;8.358;2024-02-26T12:48:06;6.57;;;4.43;;
72275;SDS011;61204;49.980;8.358;2024-02-26T12:50:33;7.05;;;4.45;;
72275;SDS011;61204;49.980;8.358;2024-02-26T12:52:59;7.88;;;4.63;;
72275;SDS011;61204;49.980;8.358;2024-02-26T12:55:25;8.18;;;4.45;;
72275;SDS011;61204;49.980;8.358;2024-02-26T12:57:52;6.63;;;4.10;;
72275;SDS011;61204;49.980;8.358;2024-02-26T13:00:21;6.18;;;3.88;;
72275;SDS011;61204;49.980;8.358;2024-02-26T13:02:51;5.68;;;4.10;;
72275;SDS011;61204;49.980;8.358;2024-02-26T13:05:20;8.55;;;4.07;;
72275;SDS011;61204;49.980;8.358;2024-02-26T13:07:51;7.90;;;4.53;;
72275;SDS011;61204;49.980;8.358;2024-02-26T13:10:18;6.25;;;4.13;;
72275;SDS011;61204;49.980;8.358;2024-02-26T13:12:45;6.85;;;4.65;;
72275;SDS011;61204;49.980;8.358;2024-02-26T13:15:19;5.75;;;3.72;;
72275;SDS011;61204;49.980;8.358;2024-02-26T13:17:47;6.28;;;4.50;;
72275;SDS011;61204;49.980;8.358;2024-02-26T13:20:28;8.13;;;4.70;;
72275;SDS011;61204;49.980;8.358;2024-02-26T13:23:05;5.57;;;4.10;;
72275;SDS011;61204;49.980;8.358;2024-02-26T13:25:36;6.43;;;4.28;;
72275;SDS011;61204;49.980;8.358;2024-02-26T13:28:25;6.90;;;4.38;;
72275;SDS011;61204;49.980;8.358;2024-02-26T13:33:23;5.43;;;3.72;;
72275;SDS011;61204;49.980;8.358;2024-02-26T13:35:51;5.22;;;3.58;;
72275;SDS011;61204;49.980;8.358;2024-02-26T13:38:20;5.15;;;3.90;;
72275;SDS011;61204;49.980;8.358;2024-02-26T13:40:46;5.50;;;3.70;;
72275;SDS011;61204;49.980;8.358;2024-02-26T13:43:11;7.18;;;4.20;;
72275;SDS011;61204;49.980;8.358;2024-02-26T13:45:38;6.13;;;4.35;;
72275;SDS011;61204;49.980;8.358;2024-02-26T13:48:07;5.75;;;3.63;;
72275;SDS011;61204;49.980;8.358;2024-02-26T13:50:40;5.15;;;3.70;;
72275;SDS011;61204;49.980;8.358;2024-02-26T13:53:08;8.48;;;4.25;;
72275;SDS011;61204;49.980;8.358;2024-02-26T13:55:34;7.35;;;4.07;;
72275;SDS011;61204;49.980;8.358;2024-02-26T13:58:01;5.35;;;4.10;;
72275;SDS011;61204;49.980;8.358;2024-02-26T14:00:27;6.10;;;4.10;;
72275;SDS011;61204;49.980;8.358;2024-02-26T14:02:57;4.90;;;3.60;;
72275;SDS011;61204;49.980;8.358;2024-02-26T14:05:27;8.90;;;3.90;;
72275;SDS011;61204;49.980;8.358;2024-02-26T14:07:54;5.75;;;3.45;;
72275;SDS011;61204;49.980;8.358;2024-02-26T14:10:20;5.45;;;3.35;;
72275;SDS011;61204;49.980;8.358;2024-02-26T14:12:49;5.57;;;3.67;;
72275;SDS011;61204;49.980;8.358;2024-02-26T14:15:17;6.28;;;3.78;;
72275;SDS011;61204;49.980;8.358;2024-02-26T14:17:42;5.13;;;3.55;;
72275;SDS011;61204;49.980;8.358;2024-02-26T14:20:11;5.75;;;3.72;;
72275;SDS011;61204;49.980;8.358;2024-02-26T14:22:39;7.00;;;4.03;;
72275;SDS011;61204;49.980;8.358;2024-02-26T14:25:05;8.48;;;4.25;;
72275;SDS011;61204;49.980;8.358;2024-02-26T14:27:34;5.10;;;3.35;;
72275;SDS011;61204;49.980;8.358;2024-02-26T14:30:02;6.82;;;3.53;;
72275;SDS011;61204;49.980;8.358;2024-02-26T14:32:29;4.70;;;3.38;;
72275;SDS011;61204;49.980;8.358;2024-02-26T14:34:59;5.55;;;3.53;;
72275;SDS011;61204;49.980;8.358;2024-02-26T14:37:28;10.10;;;3.85;;
72275;SDS011;61204;49.980;8.358;2024-02-26T14:39:53;4.90;;;3.45;;
72275;SDS011;61204;49.980;8.358;2024-02-26T14:42:19;5.63;;;2.97;;
72275;SDS011;61204;49.980;8.358;2024-02-26T14:44:45;5.60;;;3.35;;
72275;SDS011;61204;49.980;8.358;2024-02-26T14:47:12;6.28;;;3.33;;
72275;SDS011;61204;49.980;8.358;2024-02-26T14:49:39;5.38;;;3.55;;
72275;SDS011;61204;49.980;8.358;2024-02-26T14:52:05;5.93;;;3.28;;
72275;SDS011;61204;49.980;8.358;2024-02-26T14:54:30;5.20;;;3.58;;
72275;SDS011;61204;49.980;8.358;2024-02-26T14:57:02;5.20;;;3.95;;